createdAt,value
2022-12-23T00:00:01.481Z,22.24
2022-12-23T00:01:01.510Z,22.24
2022-12-23T00:02:01.484Z,22.24
2022-12-23T00:03:01.616Z,22.24
2022-12-23T00:04:01.479Z,22.24
2022-12-23T00:05:01.491Z,22.22
2022-12-23T00:06:01.416Z,22.25
2022-12-23T00:07:01.478Z,22.28
2022-12-23T00:08:01.434Z,22.32
2022-12-23T00:09:01.492Z,22.29
2022-12-23T00:10:01.464Z,22.31
2022-12-23T00:11:01.451Z,22.29
2022-12-23T00:12:01.452Z,22.31
2022-12-23T00:13:01.471Z,22.31
2022-12-23T00:14:01.444Z,22.29
2022-12-23T00:15:01.514Z,22.29
2022-12-23T00:16:01.497Z,22.28
2022-12-23T00:17:01.548Z,22.29
2022-12-23T00:18:01.443Z,22.28
2022-12-23T00:19:01.451Z,22.28
2022-12-23T00:20:01.452Z,22.28
2022-12-23T00:21:06.749Z,22.25
2022-12-23T00:22:02.557Z,22.25
2022-12-23T00:23:01.451Z,22.24
2022-12-23T00:24:01.496Z,22.27
2022-12-23T00:25:01.481Z,22.27
2022-12-23T00:26:01.457Z,22.25
2022-12-23T00:27:01.436Z,22.25
2022-12-23T00:28:01.588Z,22.24
2022-12-23T00:29:01.419Z,22.25
2022-12-23T00:30:01.564Z,22.22
2022-12-23T00:31:01.437Z,22.24
2022-12-23T00:32:01.533Z,22.24
2022-12-23T00:33:01.442Z,22.24
2022-12-23T00:34:01.469Z,22.24
2022-12-23T00:35:01.433Z,22.21
2022-12-23T00:36:01.555Z,22.21
2022-12-23T00:37:01.479Z,22.21
2022-12-23T00:38:01.488Z,22.22
2022-12-23T00:39:01.487Z,22.21
2022-12-23T00:40:06.548Z,22.25
2022-12-23T00:41:02.460Z,22.25
2022-12-23T00:42:01.471Z,22.24
2022-12-23T00:43:01.493Z,22.22
2022-12-23T00:44:01.439Z,22.24
2022-12-23T00:45:01.472Z,22.22
2022-12-23T00:46:01.523Z,22.25
2022-12-23T00:47:01.453Z,22.24
2022-12-23T00:48:01.410Z,22.29
2022-12-23T00:49:01.455Z,22.34
2022-12-23T00:50:01.440Z,22.35
2022-12-23T00:51:01.442Z,22.38
2022-12-23T00:52:01.421Z,22.41
2022-12-23T00:53:01.417Z,22.42
2022-12-23T00:54:01.395Z,22.49
2022-12-23T00:55:01.510Z,22.56
2022-12-23T00:56:01.375Z,22.59
2022-12-23T00:57:01.402Z,22.67
2022-12-23T00:58:01.385Z,22.73
2022-12-23T00:59:01.397Z,22.80
2022-12-23T01:00:01.436Z,22.83
2022-12-23T01:01:01.360Z,22.89
2022-12-23T01:02:01.424Z,22.93
2022-12-23T01:03:01.415Z,22.97
2022-12-23T01:04:01.306Z,23.01
2022-12-23T01:05:01.295Z,23.07
2022-12-23T01:06:01.252Z,23.11
2022-12-23T01:07:01.243Z,23.15
2022-12-23T01:08:01.258Z,23.19
2022-12-23T01:09:01.279Z,23.25
2022-12-23T01:10:01.199Z,23.26
2022-12-23T01:11:01.224Z,23.31
2022-12-23T01:12:01.192Z,23.35
2022-12-23T01:13:01.220Z,23.39
2022-12-23T01:14:01.173Z,23.44
2022-12-23T01:15:01.165Z,23.45
2022-12-23T01:16:01.162Z,23.53
2022-12-23T01:17:01.216Z,23.57
2022-12-23T01:18:01.115Z,23.57
2022-12-23T01:19:01.085Z,23.59
2022-12-23T01:20:01.075Z,23.60
2022-12-23T01:21:01.068Z,23.59
2022-12-23T01:22:01.031Z,23.59
2022-12-23T01:23:01.023Z,23.57
2022-12-23T01:24:00.991Z,23.59
2022-12-23T01:25:01.015Z,23.57
2022-12-23T01:26:00.963Z,23.59
2022-12-23T01:27:00.948Z,23.57
2022-12-23T01:28:00.997Z,23.56
2022-12-23T01:29:01.075Z,23.56
2022-12-23T01:30:00.866Z,23.56
2022-12-23T01:31:00.870Z,23.53
2022-12-23T01:32:00.904Z,23.53
2022-12-23T01:33:00.803Z,23.52
2022-12-23T01:34:00.891Z,23.52
2022-12-23T01:35:00.790Z,23.46
2022-12-23T01:36:00.787Z,23.46
2022-12-23T01:37:00.785Z,23.46
2022-12-23T01:38:00.754Z,23.52
2022-12-23T01:39:00.731Z,23.52
2022-12-23T01:40:00.716Z,23.50
2022-12-23T01:41:00.706Z,23.52
2022-12-23T01:42:00.672Z,23.49
2022-12-23T01:43:00.672Z,23.50
2022-12-23T01:44:00.649Z,23.49
2022-12-23T01:45:00.675Z,23.49
2022-12-23T01:46:00.636Z,23.49
2022-12-23T01:47:00.626Z,23.49
2022-12-23T01:48:00.577Z,23.49
2022-12-23T01:49:00.579Z,23.48
2022-12-23T01:50:00.554Z,23.48
2022-12-23T01:51:00.541Z,23.46
2022-12-23T01:52:00.488Z,23.48
2022-12-23T01:53:06.894Z,23.46
2022-12-23T01:54:01.532Z,23.45
2022-12-23T01:55:00.462Z,23.39
2022-12-23T01:56:00.492Z,23.37
2022-12-23T01:57:00.432Z,23.35
2022-12-23T01:58:00.483Z,23.29
2022-12-23T01:59:00.430Z,23.29
2022-12-23T02:00:00.430Z,23.26
2022-12-23T02:01:00.422Z,23.23
2022-12-23T02:02:00.694Z,23.22
2022-12-23T02:03:00.481Z,23.22
2022-12-23T02:04:00.415Z,23.17
2022-12-23T02:05:00.311Z,23.19
2022-12-23T02:06:00.318Z,23.15
2022-12-23T02:07:00.324Z,23.15
2022-12-23T02:08:00.349Z,23.15
2022-12-23T02:09:00.280Z,23.15
2022-12-23T02:10:00.300Z,23.14
2022-12-23T02:11:00.249Z,23.11
2022-12-23T02:12:00.285Z,23.14
2022-12-23T02:13:00.227Z,23.11
2022-12-23T02:14:00.246Z,23.10
2022-12-23T02:15:00.196Z,23.08
2022-12-23T02:16:00.227Z,23.08
2022-12-23T02:17:00.273Z,23.07
2022-12-23T02:18:00.219Z,23.05
2022-12-23T02:19:00.161Z,23.04
2022-12-23T02:20:00.176Z,23.05
2022-12-23T02:21:00.145Z,23.03
2022-12-23T02:22:00.174Z,23.00
2022-12-23T02:23:00.128Z,23.03
2022-12-23T02:24:00.183Z,23.01
2022-12-23T02:25:00.120Z,22.98
2022-12-23T02:26:00.133Z,22.98
2022-12-23T02:27:00.119Z,22.97
2022-12-23T02:28:00.128Z,22.98
2022-12-23T02:29:00.118Z,22.93
2022-12-23T02:30:00.146Z,22.94
2022-12-23T02:31:00.139Z,22.93
2022-12-23T02:32:00.131Z,22.93
2022-12-23T02:33:00.092Z,22.90
2022-12-23T02:34:00.065Z,22.91
2022-12-23T02:35:00.007Z,22.87
2022-12-23T02:36:00.061Z,22.86
2022-12-23T02:37:00.006Z,22.84
2022-12-23T02:38:00.044Z,22.86
2022-12-23T02:38:59.993Z,22.83
2022-12-23T02:40:00.019Z,22.84
2022-12-23T02:40:59.974Z,22.83
2022-12-23T02:42:00.020Z,22.82
2022-12-23T02:43:00.002Z,22.80
2022-12-23T02:44:00.006Z,22.78
2022-12-23T02:44:59.939Z,22.76
2022-12-23T02:45:59.983Z,22.77
2022-12-23T02:46:59.962Z,22.77
2022-12-23T02:47:59.977Z,22.76
2022-12-23T02:48:59.912Z,22.71
2022-12-23T02:49:59.972Z,22.76
2022-12-23T02:50:59.924Z,22.74
2022-12-23T02:51:59.939Z,22.70
2022-12-23T02:52:59.900Z,22.69
2022-12-23T02:53:59.928Z,22.70
2022-12-23T02:54:59.882Z,22.69
2022-12-23T02:55:59.907Z,22.69
2022-12-23T02:56:59.860Z,22.66
2022-12-23T02:57:59.884Z,22.69
2022-12-23T02:58:59.840Z,22.66
2022-12-23T02:59:59.875Z,22.64
2022-12-23T03:00:59.824Z,22.66
2022-12-23T03:02:00.019Z,22.63
2022-12-23T03:02:59.959Z,22.60
2022-12-23T03:03:59.938Z,22.64
2022-12-23T03:05:01.122Z,22.59
2022-12-23T03:05:59.855Z,22.59
2022-12-23T03:07:02.961Z,22.59
2022-12-23T03:08:00.878Z,22.58
2022-12-23T03:08:59.808Z,22.55
2022-12-23T03:09:59.855Z,22.55
2022-12-23T03:10:59.786Z,22.55
2022-12-23T03:11:59.837Z,22.53
2022-12-23T03:12:59.818Z,22.55
2022-12-23T03:13:59.845Z,22.52
2022-12-23T03:14:59.868Z,22.50
2022-12-23T03:15:59.909Z,22.52
2022-12-23T03:16:59.779Z,22.50
2022-12-23T03:17:59.820Z,22.49
2022-12-23T03:18:59.750Z,22.49
2022-12-23T03:19:59.824Z,22.48
2022-12-23T03:20:59.762Z,22.46
2022-12-23T03:21:59.781Z,22.46
2022-12-23T03:22:59.739Z,22.48
2022-12-23T03:23:59.793Z,22.46
2022-12-23T03:24:59.751Z,22.45
2022-12-23T03:25:59.755Z,22.45
2022-12-23T03:26:59.734Z,22.45
2022-12-23T03:27:59.779Z,22.45
2022-12-23T03:28:59.744Z,22.43
2022-12-23T03:29:59.740Z,22.43
2022-12-23T03:30:59.745Z,22.43
2022-12-23T03:31:59.775Z,22.43
2022-12-23T03:32:59.704Z,22.43
2022-12-23T03:33:59.727Z,22.43
2022-12-23T03:34:59.688Z,22.43
2022-12-23T03:35:59.742Z,22.41
2022-12-23T03:36:59.729Z,22.39
2022-12-23T03:37:59.729Z,22.41
2022-12-23T03:38:59.690Z,22.41
2022-12-23T03:39:59.745Z,22.39
2022-12-23T03:40:59.708Z,22.42
2022-12-23T03:41:59.754Z,22.39
2022-12-23T03:42:59.722Z,22.36
2022-12-23T03:43:59.747Z,22.38
2022-12-23T03:45:36.349Z,22.38
2022-12-23T03:46:00.798Z,22.38
2022-12-23T03:46:59.732Z,22.36
2022-12-23T03:47:59.718Z,22.38
2022-12-23T03:48:59.692Z,22.36
2022-12-23T03:49:59.761Z,22.38
2022-12-23T03:50:59.713Z,22.38
2022-12-23T03:51:59.734Z,22.36
2022-12-23T03:52:59.730Z,22.36
2022-12-23T03:53:59.737Z,22.34
2022-12-23T03:54:59.732Z,22.34
2022-12-23T03:55:59.724Z,22.34
2022-12-23T03:56:59.691Z,22.35
2022-12-23T03:57:59.763Z,22.35
2022-12-23T03:58:59.704Z,22.36
2022-12-23T03:59:59.750Z,22.34
2022-12-23T04:00:59.691Z,22.34
2022-12-23T04:01:59.832Z,22.34
2022-12-23T04:02:59.792Z,22.31
2022-12-23T04:03:59.728Z,22.31
2022-12-23T04:04:59.690Z,22.32
2022-12-23T04:05:59.736Z,22.31
2022-12-23T04:06:59.684Z,22.32
2022-12-23T04:07:59.699Z,22.31
2022-12-23T04:08:59.673Z,22.31
2022-12-23T04:09:59.729Z,22.32
2022-12-23T04:10:59.669Z,22.29
2022-12-23T04:11:59.735Z,22.28
2022-12-23T04:12:59.699Z,22.29
2022-12-23T04:13:59.716Z,22.29
2022-12-23T04:14:59.671Z,22.31
2022-12-23T04:15:59.755Z,22.29
2022-12-23T04:16:59.670Z,22.29
2022-12-23T04:17:59.701Z,22.28
2022-12-23T04:18:59.687Z,22.28
2022-12-23T04:19:59.710Z,22.29
2022-12-23T04:20:59.669Z,22.29
2022-12-23T04:21:59.715Z,22.29
2022-12-23T04:22:59.675Z,22.31
2022-12-23T04:23:59.725Z,22.27
2022-12-23T04:24:59.672Z,22.29
2022-12-23T04:25:59.737Z,22.28
2022-12-23T04:26:59.686Z,22.28
2022-12-23T04:27:59.734Z,22.25
2022-12-23T04:28:59.684Z,22.25
2022-12-23T04:29:59.732Z,22.27
2022-12-23T04:30:59.724Z,22.25
2022-12-23T04:31:59.812Z,22.24
2022-12-23T04:32:59.704Z,22.25
2022-12-23T04:33:59.735Z,22.24
2022-12-23T04:34:59.688Z,22.22
2022-12-23T04:35:59.718Z,22.25
2022-12-23T04:36:59.680Z,22.24
2022-12-23T04:37:59.698Z,22.24
2022-12-23T04:38:59.625Z,22.22
2022-12-23T04:39:59.718Z,22.22
2022-12-23T04:40:59.656Z,22.22
2022-12-23T04:41:59.662Z,22.21
2022-12-23T04:42:59.648Z,22.21
2022-12-23T04:43:59.655Z,22.21
2022-12-23T04:44:59.616Z,22.22
2022-12-23T04:45:59.650Z,22.21
2022-12-23T04:46:59.676Z,22.18
2022-12-23T04:47:59.661Z,22.24
2022-12-23T04:48:59.654Z,22.21
2022-12-23T04:49:59.663Z,22.19
2022-12-23T04:50:59.665Z,22.21
2022-12-23T04:51:59.669Z,22.21
2022-12-23T04:52:59.627Z,22.21
2022-12-23T04:53:59.683Z,22.18
2022-12-23T04:54:59.667Z,22.19
2022-12-23T04:55:59.642Z,22.18
2022-12-23T04:56:59.628Z,22.21
2022-12-23T04:57:59.658Z,22.19
2022-12-23T04:58:59.664Z,22.21
2022-12-23T04:59:59.661Z,22.19
2022-12-23T05:00:59.661Z,22.21
2022-12-23T05:01:59.912Z,22.18
2022-12-23T05:02:59.745Z,22.19
2022-12-23T05:03:59.648Z,22.19
2022-12-23T05:04:59.660Z,22.16
2022-12-23T05:05:59.655Z,22.18
2022-12-23T05:06:59.661Z,22.19
2022-12-23T05:07:59.634Z,22.16
2022-12-23T05:08:59.686Z,22.18
2022-12-23T05:09:59.658Z,22.19
2022-12-23T05:10:59.661Z,22.16
2022-12-23T05:11:59.625Z,22.16
2022-12-23T05:12:59.635Z,22.19
2022-12-23T05:13:59.668Z,22.19
2022-12-23T05:14:59.624Z,22.18
2022-12-23T05:15:59.712Z,22.15
2022-12-23T05:17:05.271Z,22.18
2022-12-23T05:18:00.627Z,22.16
2022-12-23T05:18:59.591Z,22.15
2022-12-23T05:19:59.620Z,22.18
2022-12-23T05:20:59.612Z,22.15
2022-12-23T05:21:59.604Z,22.18
2022-12-23T05:22:59.632Z,22.16
2022-12-23T05:23:59.632Z,22.12
2022-12-23T05:24:59.639Z,22.18
2022-12-23T05:25:59.604Z,22.15
2022-12-23T05:27:00.553Z,22.15
2022-12-23T05:27:59.655Z,22.14
2022-12-23T05:28:59.616Z,22.12
2022-12-23T05:29:59.616Z,22.14
2022-12-23T05:30:59.616Z,22.15
2022-12-23T05:31:59.747Z,22.15
2022-12-23T05:32:59.712Z,22.12
2022-12-23T05:34:06.098Z,22.14
2022-12-23T05:35:00.654Z,22.12
2022-12-23T05:35:59.632Z,22.14
2022-12-23T05:36:59.656Z,22.11
2022-12-23T05:37:59.620Z,22.11
2022-12-23T05:38:59.630Z,22.12
2022-12-23T05:39:59.634Z,22.11
2022-12-23T05:40:59.645Z,22.12
2022-12-23T05:41:59.607Z,22.11
2022-12-23T05:42:59.650Z,22.12
2022-12-23T05:43:59.630Z,22.12
2022-12-23T05:44:59.658Z,22.12
2022-12-23T05:45:59.695Z,22.09
2022-12-23T05:46:59.633Z,22.12
2022-12-23T05:47:59.609Z,22.12
2022-12-23T05:48:59.621Z,22.14
2022-12-23T05:49:59.680Z,22.18
2022-12-23T05:50:59.650Z,22.18
2022-12-23T05:51:59.597Z,22.21
2022-12-23T05:52:59.617Z,22.18
2022-12-23T05:53:59.620Z,22.19
2022-12-23T05:54:59.633Z,22.19
2022-12-23T05:55:59.601Z,22.22
2022-12-23T05:56:59.621Z,22.25
2022-12-23T05:57:59.613Z,22.25
2022-12-23T05:58:59.628Z,22.27
2022-12-23T05:59:59.588Z,22.29
2022-12-23T06:00:59.639Z,22.34
2022-12-23T06:01:59.865Z,22.36
2022-12-23T06:02:59.935Z,22.43
2022-12-23T06:03:59.772Z,22.53
2022-12-23T06:04:59.612Z,22.60
2022-12-23T06:05:59.595Z,22.66
2022-12-23T06:06:59.617Z,22.74
2022-12-23T06:07:59.544Z,22.77
2022-12-23T06:09:00.358Z,22.83
2022-12-23T06:09:59.550Z,22.90
2022-12-23T06:10:59.588Z,22.94
2022-12-23T06:11:59.527Z,22.97
2022-12-23T06:12:59.579Z,23.04
2022-12-23T06:13:59.550Z,23.10
2022-12-23T06:14:59.553Z,23.07
2022-12-23T06:15:59.496Z,23.15
2022-12-23T06:16:59.719Z,23.19
2022-12-23T06:17:59.504Z,23.23
2022-12-23T06:18:59.536Z,23.28
2022-12-23T06:19:59.505Z,23.33
2022-12-23T06:20:59.535Z,23.38
2022-12-23T06:21:59.471Z,23.37
2022-12-23T06:22:59.497Z,23.41
2022-12-23T06:23:59.436Z,23.44
2022-12-23T06:24:59.484Z,23.46
2022-12-23T06:25:59.427Z,23.50
2022-12-23T06:26:59.434Z,23.50
2022-12-23T06:27:59.420Z,23.52
2022-12-23T06:28:59.452Z,23.55
2022-12-23T06:29:59.369Z,23.55
2022-12-23T06:30:59.402Z,23.56
2022-12-23T06:31:59.436Z,23.57
2022-12-23T06:32:59.358Z,23.60
2022-12-23T06:33:59.320Z,23.63
2022-12-23T06:34:59.329Z,23.60
2022-12-23T06:35:59.278Z,23.62
2022-12-23T06:36:59.295Z,23.60
2022-12-23T06:37:59.255Z,23.60
2022-12-23T06:38:59.238Z,23.59
2022-12-23T06:39:59.204Z,23.60
2022-12-23T06:40:59.229Z,23.60
2022-12-23T06:41:59.183Z,23.60
2022-12-23T06:42:59.199Z,23.60
2022-12-23T06:43:59.164Z,23.57
2022-12-23T06:44:59.171Z,23.57
2022-12-23T06:45:59.176Z,23.57
2022-12-23T06:46:59.167Z,23.55
2022-12-23T06:47:59.093Z,23.56
2022-12-23T06:48:59.117Z,23.57
2022-12-23T06:49:59.036Z,23.56
2022-12-23T06:50:59.047Z,23.55
2022-12-23T06:51:59.011Z,23.53
2022-12-23T06:52:59.025Z,23.52
2022-12-23T06:53:58.972Z,23.50
2022-12-23T06:54:59.018Z,23.50
2022-12-23T06:55:58.929Z,23.49
2022-12-23T06:56:58.966Z,23.48
2022-12-23T06:57:58.928Z,23.46
2022-12-23T06:58:58.944Z,23.45
2022-12-23T06:59:58.861Z,23.45
2022-12-23T07:00:58.912Z,23.42
2022-12-23T07:01:59.017Z,23.42
2022-12-23T07:02:58.998Z,23.45
2022-12-23T07:03:58.814Z,23.44
2022-12-23T07:04:58.846Z,23.45
2022-12-23T07:05:58.794Z,23.45
2022-12-23T07:06:58.827Z,23.46
2022-12-23T07:07:58.778Z,23.48
2022-12-23T07:08:58.780Z,23.49
2022-12-23T07:09:58.752Z,23.52
2022-12-23T07:10:58.784Z,23.50
2022-12-23T07:11:58.703Z,23.53
2022-12-23T07:12:58.743Z,23.53
2022-12-23T07:13:58.708Z,23.55
2022-12-23T07:14:58.710Z,23.55
2022-12-23T07:15:58.664Z,23.59
2022-12-23T07:16:58.722Z,23.60
2022-12-23T07:17:58.651Z,23.59
2022-12-23T07:18:58.675Z,23.62
2022-12-23T07:19:58.618Z,23.62
2022-12-23T07:20:58.630Z,23.60
2022-12-23T07:21:58.595Z,23.63
2022-12-23T07:22:58.615Z,23.65
2022-12-23T07:23:58.573Z,23.63
2022-12-23T07:24:58.569Z,23.67
2022-12-23T07:25:58.511Z,23.65
2022-12-23T07:26:58.514Z,23.66
2022-12-23T07:27:58.487Z,23.70
2022-12-23T07:28:58.488Z,23.69
2022-12-23T07:29:58.409Z,23.70
2022-12-23T07:30:58.484Z,23.69
2022-12-23T07:31:58.480Z,23.72
2022-12-23T07:32:58.431Z,23.70
2022-12-23T07:33:58.364Z,23.70
2022-12-23T07:34:58.383Z,23.72
2022-12-23T07:35:58.345Z,23.69
2022-12-23T07:36:58.355Z,23.69
2022-12-23T07:37:58.272Z,23.69
2022-12-23T07:38:58.283Z,23.66
2022-12-23T07:40:00.049Z,23.69
2022-12-23T07:40:59.248Z,23.67
2022-12-23T07:42:24.908Z,23.67
2022-12-23T07:42:59.199Z,23.69
2022-12-23T07:43:58.184Z,23.66
2022-12-23T07:44:58.171Z,23.66
2022-12-23T07:46:00.603Z,23.65
2022-12-23T07:46:58.131Z,23.65
2022-12-23T07:47:58.099Z,23.65
2022-12-23T07:48:58.100Z,23.66
2022-12-23T07:49:58.078Z,23.65
2022-12-23T07:50:58.076Z,23.65
2022-12-23T07:51:58.040Z,23.66
2022-12-23T07:52:58.041Z,23.67
2022-12-23T07:53:57.996Z,23.65
2022-12-23T07:54:58.028Z,23.66
2022-12-23T07:55:57.957Z,23.66
2022-12-23T07:56:57.988Z,23.66
2022-12-23T07:57:57.955Z,23.67
2022-12-23T07:58:57.972Z,23.70
2022-12-23T07:59:58.000Z,23.67
2022-12-23T08:00:58.049Z,23.69
2022-12-23T08:01:58.051Z,23.69
2022-12-23T08:02:58.212Z,23.70
2022-12-23T08:03:57.957Z,23.70
2022-12-23T08:04:57.991Z,23.72
2022-12-23T08:05:57.914Z,23.72
2022-12-23T08:06:57.932Z,23.73
2022-12-23T08:07:57.859Z,23.77
2022-12-23T08:08:57.893Z,23.74
2022-12-23T08:09:57.842Z,23.76
2022-12-23T08:10:57.879Z,23.74
2022-12-23T08:11:57.829Z,23.77
2022-12-23T08:12:57.820Z,23.76
2022-12-23T08:13:57.790Z,23.79
2022-12-23T08:14:57.805Z,23.76
2022-12-23T08:15:57.738Z,23.76
2022-12-23T08:16:57.800Z,23.79
2022-12-23T08:17:57.694Z,23.79
2022-12-23T08:18:57.732Z,23.79
2022-12-23T08:19:57.659Z,23.77
2022-12-23T08:20:57.695Z,23.77
2022-12-23T08:21:57.613Z,23.79
2022-12-23T08:22:57.639Z,23.77
2022-12-23T08:23:57.579Z,23.77
2022-12-23T08:24:57.606Z,23.77
2022-12-23T08:25:57.579Z,23.77
2022-12-23T08:26:57.609Z,23.77
2022-12-23T08:27:57.547Z,23.76
2022-12-23T08:28:57.583Z,23.74
2022-12-23T08:29:57.517Z,23.72
2022-12-23T08:30:57.564Z,23.73
2022-12-23T08:31:57.514Z,23.70
2022-12-23T08:32:57.551Z,23.72
2022-12-23T08:33:57.488Z,23.70
2022-12-23T08:34:57.513Z,23.67
2022-12-23T08:35:57.468Z,23.69
2022-12-23T08:36:57.490Z,23.69
2022-12-23T08:37:57.437Z,23.67
2022-12-23T08:38:57.454Z,23.69
2022-12-23T08:39:57.424Z,23.63
2022-12-23T08:40:57.456Z,23.65
2022-12-23T08:41:57.363Z,23.63
2022-12-23T08:42:57.414Z,23.63
2022-12-23T08:43:57.356Z,23.63
2022-12-23T08:44:57.389Z,23.60
2022-12-23T08:45:57.345Z,23.57
2022-12-23T08:46:57.360Z,23.60
2022-12-23T08:47:57.310Z,23.57
2022-12-23T08:48:57.369Z,23.56
2022-12-23T08:49:57.265Z,23.52
2022-12-23T08:50:57.317Z,23.49
2022-12-23T08:51:57.284Z,23.48
2022-12-23T08:52:57.305Z,23.45
2022-12-23T08:54:00.557Z,23.45
2022-12-23T08:54:57.252Z,23.45
2022-12-23T08:55:57.228Z,23.45
2022-12-23T08:56:57.303Z,23.44
2022-12-23T08:57:57.192Z,23.38
2022-12-23T08:58:57.240Z,23.37
2022-12-23T08:59:57.197Z,23.35
2022-12-23T09:00:57.215Z,23.37
2022-12-23T09:01:57.288Z,23.35
2022-12-23T09:02:57.282Z,23.33
2022-12-23T09:03:57.241Z,23.32
2022-12-23T09:04:57.205Z,23.28
2022-12-23T09:05:57.157Z,23.32
2022-12-23T09:06:57.149Z,23.28
2022-12-23T09:07:57.114Z,23.23
2022-12-23T09:08:57.143Z,23.26
2022-12-23T09:09:57.088Z,23.23
2022-12-23T09:10:57.117Z,23.23
2022-12-23T09:11:57.110Z,23.23
2022-12-23T09:12:58.244Z,23.21
2022-12-23T09:13:57.061Z,23.23
2022-12-23T09:14:57.067Z,23.22
2022-12-23T09:15:57.120Z,23.25
2022-12-23T09:16:57.062Z,23.23
2022-12-23T09:17:57.041Z,23.23
2022-12-23T09:18:57.038Z,23.26
2022-12-23T09:19:56.997Z,23.22
2022-12-23T09:20:57.012Z,23.21
2022-12-23T09:21:56.992Z,23.19
2022-12-23T09:22:56.980Z,23.19
2022-12-23T09:23:56.932Z,23.19
2022-12-23T09:25:03.087Z,23.19
2022-12-23T09:25:57.962Z,23.17
2022-12-23T09:26:56.882Z,23.15
2022-12-23T09:27:56.914Z,23.17
2022-12-23T09:28:56.859Z,23.12
2022-12-23T09:29:56.915Z,23.15
2022-12-23T09:30:56.845Z,23.18
2022-12-23T09:31:56.951Z,23.19
2022-12-23T09:32:56.806Z,23.17
2022-12-23T09:33:56.841Z,23.18
2022-12-23T09:34:56.790Z,23.18
2022-12-23T09:35:56.791Z,23.17
2022-12-23T09:36:56.766Z,23.15
2022-12-23T09:37:56.812Z,23.14
2022-12-23T09:38:56.763Z,23.12
2022-12-23T09:39:56.760Z,23.11
2022-12-23T09:40:56.717Z,23.11
2022-12-23T09:41:56.773Z,23.08
2022-12-23T09:42:56.687Z,23.05
2022-12-23T09:43:56.718Z,23.05
2022-12-23T09:44:56.656Z,23.05
2022-12-23T09:45:56.724Z,23.03
2022-12-23T09:46:56.709Z,23.01
2022-12-23T09:47:56.652Z,23.00
2022-12-23T09:48:56.611Z,22.98
2022-12-23T09:49:56.660Z,23.00
2022-12-23T09:50:56.592Z,22.95
2022-12-23T09:51:56.606Z,22.94
2022-12-23T09:52:56.581Z,22.93
2022-12-23T09:53:56.690Z,22.93
2022-12-23T09:54:56.568Z,22.91
2022-12-23T09:55:56.543Z,22.91
2022-12-23T09:56:56.714Z,22.91
2022-12-23T09:57:56.522Z,22.91
2022-12-23T09:58:56.471Z,22.89
2022-12-23T09:59:56.494Z,22.89
2022-12-23T10:00:57.994Z,22.91
2022-12-23T10:01:56.678Z,22.89
2022-12-23T10:02:56.739Z,22.87
2022-12-23T10:03:56.518Z,22.90
2022-12-23T10:04:56.434Z,22.90
2022-12-23T10:05:56.407Z,22.87
2022-12-23T10:07:02.508Z,22.87
2022-12-23T10:07:57.389Z,22.82
2022-12-23T10:08:56.360Z,22.84
2022-12-23T10:09:56.355Z,22.84
2022-12-23T10:10:56.329Z,22.83
2022-12-23T10:11:56.354Z,22.82
2022-12-23T10:12:56.305Z,22.82
2022-12-23T10:13:56.311Z,22.82
2022-12-23T10:14:56.292Z,22.80
2022-12-23T10:15:56.371Z,22.80
2022-12-23T10:16:56.269Z,22.77
2022-12-23T10:17:56.273Z,22.77
2022-12-23T10:18:56.188Z,22.73
2022-12-23T10:19:56.227Z,22.73
2022-12-23T10:20:56.165Z,22.71
2022-12-23T10:21:56.197Z,22.70
2022-12-23T10:22:56.147Z,22.64
2022-12-23T10:23:56.194Z,22.70
2022-12-23T10:24:56.121Z,22.70
2022-12-23T10:25:56.149Z,22.71
2022-12-23T10:26:56.101Z,22.76
2022-12-23T10:27:56.232Z,22.73
2022-12-23T10:28:56.153Z,22.73
2022-12-23T10:29:56.100Z,22.73
2022-12-23T10:31:24.000Z,22.69
2022-12-23T10:31:57.147Z,22.70
2022-12-23T10:32:56.066Z,22.69
2022-12-23T10:33:56.121Z,22.74
2022-12-23T10:34:56.029Z,22.70
2022-12-23T10:35:56.129Z,22.73
2022-12-23T10:36:56.057Z,22.69
2022-12-23T10:37:56.072Z,22.64
2022-12-23T10:38:56.020Z,22.67
2022-12-23T10:39:56.025Z,22.66
2022-12-23T10:40:55.984Z,22.63
2022-12-23T10:41:56.040Z,22.62
2022-12-23T10:42:55.989Z,22.58
2022-12-23T10:43:56.022Z,22.62
2022-12-23T10:44:55.978Z,22.62
2022-12-23T10:45:55.997Z,22.60
2022-12-23T10:46:56.035Z,22.58
2022-12-23T10:47:55.979Z,22.58
2022-12-23T10:48:55.919Z,22.56
2022-12-23T10:49:55.979Z,22.55
2022-12-23T10:50:55.923Z,22.56
2022-12-23T10:51:55.920Z,22.56
2022-12-23T10:52:55.891Z,22.52
2022-12-23T10:53:55.918Z,22.55
2022-12-23T10:54:55.888Z,22.56
2022-12-23T10:55:55.902Z,22.53
2022-12-23T10:56:55.860Z,22.55
2022-12-23T10:57:55.871Z,22.53
2022-12-23T10:58:55.845Z,22.53
2022-12-23T10:59:55.869Z,22.55
2022-12-23T11:00:55.910Z,22.58
2022-12-23T11:01:56.087Z,22.63
2022-12-23T11:02:55.993Z,22.59
2022-12-23T11:03:55.955Z,22.64
2022-12-23T11:04:55.796Z,22.64
2022-12-23T11:05:55.955Z,22.59
2022-12-23T11:07:11.080Z,22.69
2022-12-23T11:07:56.823Z,22.60
2022-12-23T11:08:55.783Z,22.63
2022-12-23T11:09:55.820Z,22.62
2022-12-23T11:10:55.735Z,22.63
2022-12-23T11:11:55.787Z,22.62
2022-12-23T11:12:55.749Z,22.58
2022-12-23T11:13:55.762Z,22.60
2022-12-23T11:14:55.730Z,22.59
2022-12-23T11:15:55.800Z,22.58
2022-12-23T11:16:55.780Z,22.56
2022-12-23T11:17:55.731Z,22.58
2022-12-23T11:18:55.688Z,22.56
2022-12-23T11:19:55.727Z,22.55
2022-12-23T11:20:55.681Z,22.55
2022-12-23T11:21:55.686Z,22.56
2022-12-23T11:22:55.624Z,22.55
2022-12-23T11:23:55.698Z,22.55
2022-12-23T11:24:55.633Z,22.55
2022-12-23T11:25:55.673Z,22.56
2022-12-23T11:26:55.621Z,22.58
2022-12-23T11:27:55.622Z,22.60
2022-12-23T11:28:55.596Z,22.59
2022-12-23T11:29:55.616Z,22.63
2022-12-23T11:30:56.892Z,22.66
2022-12-23T11:31:55.664Z,22.69
2022-12-23T11:32:55.553Z,22.71
2022-12-23T11:33:55.586Z,22.73
2022-12-23T11:34:55.603Z,22.74
2022-12-23T11:35:55.578Z,22.77
2022-12-23T11:36:58.677Z,22.78
2022-12-23T11:37:56.523Z,22.80
2022-12-23T11:38:55.481Z,22.82
2022-12-23T11:39:55.515Z,22.78
2022-12-23T11:40:55.459Z,22.83
2022-12-23T11:41:55.489Z,22.87
2022-12-23T11:42:55.525Z,22.86
2022-12-23T11:43:55.472Z,22.86
2022-12-23T11:44:55.411Z,22.89
2022-12-23T11:45:55.466Z,22.86
2022-12-23T11:46:55.414Z,22.89
2022-12-23T11:47:55.411Z,22.87
2022-12-23T11:48:55.403Z,22.89
2022-12-23T11:49:55.384Z,22.89
2022-12-23T11:50:55.451Z,22.89
2022-12-23T11:51:55.471Z,22.91
2022-12-23T11:52:55.380Z,22.89
2022-12-23T11:53:55.435Z,22.89
2022-12-23T11:54:55.352Z,22.90
2022-12-23T11:55:55.956Z,22.89
2022-12-23T11:56:56.636Z,22.90
2022-12-23T11:57:55.468Z,22.84
2022-12-23T11:58:55.592Z,22.93
2022-12-23T11:59:55.476Z,22.98
2022-12-23T12:00:56.221Z,22.98
2022-12-23T12:01:55.547Z,22.95
2022-12-23T12:02:55.667Z,22.95
2022-12-23T12:03:55.427Z,22.97
2022-12-23T12:04:55.525Z,22.94
2022-12-23T12:05:55.460Z,22.93
2022-12-23T12:06:56.810Z,22.91
2022-12-23T12:07:55.384Z,22.90
2022-12-23T12:08:55.423Z,22.86
2022-12-23T12:09:55.383Z,22.86
2022-12-23T12:10:55.435Z,22.84
2022-12-23T12:11:55.386Z,22.83
2022-12-23T12:12:55.386Z,22.80
2022-12-23T12:13:55.347Z,22.87
2022-12-23T12:14:55.405Z,22.90
2022-12-23T12:15:55.339Z,22.94
2022-12-23T12:16:55.321Z,22.93
2022-12-23T12:17:55.250Z,22.94
2022-12-23T12:18:56.026Z,22.95
2022-12-23T12:19:55.254Z,22.95
2022-12-23T12:20:55.400Z,22.95
2022-12-23T12:21:55.210Z,22.97
2022-12-23T12:22:55.235Z,22.95
2022-12-23T12:24:14.689Z,22.89
2022-12-23T12:24:56.227Z,22.91
2022-12-23T12:25:55.215Z,22.87
2022-12-23T12:26:55.210Z,22.87
2022-12-23T12:27:55.215Z,22.84
2022-12-23T12:28:55.198Z,22.82
2022-12-23T12:29:55.187Z,22.82
2022-12-23T12:30:55.274Z,22.82
2022-12-23T12:31:55.171Z,22.82
2022-12-23T12:32:55.193Z,22.82
2022-12-23T12:33:55.167Z,22.82
2022-12-23T12:34:55.186Z,22.78
2022-12-23T12:35:58.942Z,22.80
2022-12-23T12:36:56.261Z,22.74
2022-12-23T12:37:55.187Z,22.73
2022-12-23T12:38:55.151Z,22.70
2022-12-23T12:39:55.156Z,22.70
2022-12-23T12:40:55.163Z,22.69
2022-12-23T12:42:00.045Z,22.67
2022-12-23T12:42:56.158Z,22.66
2022-12-23T12:43:55.114Z,22.66
2022-12-23T12:44:55.151Z,22.63
2022-12-23T12:45:55.165Z,22.63
2022-12-23T12:46:55.149Z,22.63
2022-12-23T12:47:59.934Z,22.63
2022-12-23T12:48:56.125Z,22.66
2022-12-23T12:49:55.092Z,22.64
2022-12-23T12:50:55.107Z,22.64
2022-12-23T12:51:55.084Z,22.64